Time;durP1;ratioP1;P1;durP2;ratioP2;P2;SDS_P1;SDS_P2;PMS_P1;PMS_P2;Temp;Humidity;BMP_temperature;BMP_pressure;BME280_temperature;BME280_humidity;BME280_pressure;Samples;Min_cycle;Max_cycle;Signal;HPM_P1;HPM_P2
2023/06/28 00:01:25;;;;;;;;;;;16.90;99.90;;;;;;5014544;28;21240;-75
2023/06/28 00:04:02;;;;;;;;;;;16.90;99.90;;;;;;5033586;28;20401;-75
2023/06/28 00:06:49;;;;;;;;;;;16.90;99.90;;;;;;5003450;28;19982;-76
2023/06/28 00:09:15;;;;;;;;;;;16.90;99.90;;;;;;5006076;28;19956;-74
2023/06/28 00:11:41;;;;;;;;;;;16.90;99.90;;;;;;5018032;28;19920;-75
2023/06/28 00:14:10;;;;;;;;;;;16.90;99.90;;;;;;5034929;28;19927;-74
2023/06/28 00:16:35;;;;;;;;;;;17.00;99.90;;;;;;5037966;28;20348;-75
2023/06/28 00:19:03;;;;;;;;;;;17.00;99.90;;;;;;5002932;28;19925;-75
2023/06/28 00:21:31;;;;;;;;;;;17.00;99.90;;;;;;5024728;28;19924;-75
2023/06/28 00:24:00;;;;;;;;;;;17.00;99.90;;;;;;5023191;28;19931;-75
2023/06/28 00:26:27;;;;;;;;;;;17.00;99.90;;;;;;5037459;28;20281;-74
2023/06/28 00:28:55;;;;;;;;;;;16.80;99.90;;;;;;5015087;28;19987;-74
2023/06/28 00:31:23;;;;;;;;;;;17.00;99.90;;;;;;5004711;28;20430;-75
2023/06/28 00:33:54;;;;;;;;;;;17.00;99.90;;;;;;5003123;28;20283;-76
2023/06/28 00:36:23;;;;;;;;;;;17.00;99.90;;;;;;5035169;28;20070;-75
2023/06/28 00:38:55;;;;;;;;;;;16.90;99.90;;;;;;5031616;28;20430;-74
2023/06/28 00:41:27;;;;;;;;;;;16.90;99.90;;;;;;5032595;28;20003;-74
2023/06/28 00:43:55;;;;;;;;;;;16.90;99.90;;;;;;5019250;28;19947;-75
2023/06/28 00:46:41;;;;;;;;;;;16.80;99.90;;;;;;5036809;28;19924;-75
2023/06/28 00:49:13;;;;;;;;;;;16.80;99.90;;;;;;5021078;28;20030;-74
2023/06/28 00:51:39;;;;;;;;;;;16.70;99.90;;;;;;5001818;28;19924;-75
2023/06/28 00:54:05;;;;;;;;;;;16.70;99.90;;;;;;5021287;28;19931;-74
2023/06/28 00:56:32;;;;;;;;;;;16.70;99.90;;;;;;5016234;28;19965;-74
2023/06/28 00:59:04;;;;;;;;;;;16.70;99.90;;;;;;5021805;28;19929;-74
2023/06/28 01:01:30;;;;;;;;;;;16.70;99.90;;;;;;5035886;28;20398;-74
2023/06/28 01:03:57;;;;;;;;;;;16.60;99.90;;;;;;5014849;28;19925;-74
2023/06/28 01:06:24;;;;;;;;;;;16.60;99.90;;;;;;5031501;28;19928;-76
2023/06/28 01:08:53;;;;;;;;;;;16.60;99.90;;;;;;5015194;28;19921;-74
2023/06/28 01:11:21;;;;;;;;;;;16.60;99.90;;;;;;4987621;28;19929;-75
2023/06/28 01:13:51;;;;;;;;;;;16.60;99.90;;;;;;5020617;28;19925;-75
2023/06/28 01:16:18;;;;;;;;;;;16.60;99.90;;;;;;5028420;28;20342;-75
2023/06/28 01:18:45;;;;;;;;;;;16.50;99.90;;;;;;5015832;28;19998;-76
2023/06/28 01:21:17;;;;;;;;;;;16.50;99.90;;;;;;5043842;28;20556;-76
2023/06/28 01:23:43;;;;;;;;;;;16.50;99.90;;;;;;5030706;28;19929;-75
2023/06/28 01:26:09;;;;;;;;;;;16.50;99.90;;;;;;5016410;28;19928;-75
2023/06/28 01:28:34;;;;;;;;;;;16.40;99.90;;;;;;4999525;28;20335;-74
2023/06/28 01:31:03;;;;;;;;;;;16.40;99.90;;;;;;5018841;28;20303;-75
2023/06/28 01:33:28;;;;;;;;;;;16.40;99.90;;;;;;5034316;28;21070;-76
2023/06/28 01:35:56;;;;;;;;;;;16.40;99.90;;;;;;5002199;28;20385;-76
2023/06/28 01:38:30;;;;;;;;;;;16.40;99.90;;;;;;5031821;28;19924;-75
2023/06/28 01:40:57;;;;;;;;;;;16.30;99.90;;;;;;5017640;28;20015;-77
2023/06/28 01:43:27;;;;;;;;;;;16.30;99.90;;;;;;5014120;28;19921;-75
2023/06/28 01:45:54;;;;;;;;;;;16.30;99.90;;;;;;5019893;28;19924;-75
2023/06/28 01:48:29;;;;;;;;;;;16.20;99.90;;;;;;5004475;28;19978;-75
2023/06/28 01:51:07;;;;;;;;;;;16.20;99.90;;;;;;5019024;28;19970;-75
2023/06/28 01:53:34;;;;;;;;;;;16.20;99.90;;;;;;5019234;28;20003;-75
2023/06/28 01:56:01;;;;;;;;;;;16.20;99.90;;;;;;4998500;28;19979;-75
2023/06/28 01:58:28;;;;;;;;;;;16.20;99.90;;;;;;4998685;28;19925;-76
2023/06/28 02:00:57;;;;;;;;;;;16.20;99.90;;;;;;5001581;28;19990;-75
2023/06/28 02:03:27;;;;;;;;;;;16.20;99.90;;;;;;5020077;28;20330;-75
2023/06/28 02:06:22;;;;;;;;;;;16.20;99.90;;;;;;4976074;28;19936;-75
2023/06/28 02:08:47;;;;;;;;;;;16.20;99.90;;;;;;4960941;28;19925;-76
2023/06/28 02:11:13;;;;;;;;;;;16.20;99.90;;;;;;4961968;28;20294;-75
2023/06/28 02:13:45;;;;;;;;;;;16.20;99.90;;;;;;4993558;28;19957;-77
2023/06/28 02:16:11;;;;;;;;;;;16.20;99.90;;;;;;4961614;28;19926;-75
2023/06/28 02:18:49;;;;;;;;;;;16.20;99.90;;;;;;4992057;28;20172;-75
2023/06/28 02:21:16;;;;;;;;;;;16.20;99.90;;;;;;4978510;28;19972;-75
2023/06/28 02:23:56;;;;;;;;;;;16.20;99.90;;;;;;4991758;28;20371;-76
2023/06/28 02:26:31;;;;;;;;;;;16.10;99.90;;;;;;4976104;28;19949;-75
2023/06/28 02:28:56;;;;;;;;;;;16.20;99.90;;;;;;4978509;28;19929;-75
2023/06/28 02:31:26;;;;;;;;;;;16.10;99.90;;;;;;4991847;28;19926;-76
2023/06/28 02:33:53;;;;;;;;;;;16.10;99.90;;;;;;4960514;28;19921;-74
2023/06/28 02:36:19;;;;;;;;;;;16.10;99.90;;;;;;4976764;28;19921;-75
2023/06/28 02:38:52;;;;;;;;;;;16.20;99.90;;;;;;4962502;28;19980;-76
2023/06/28 02:41:18;;;;;;;;;;;16.10;99.90;;;;;;4989880;28;20455;-74
2023/06/28 02:43:49;;;;;;;;;;;16.10;99.90;;;;;;5015023;28;20028;-75
2023/06/28 02:46:16;;;;;;;;;;;15.80;99.90;;;;;;4996049;28;20371;-76
2023/06/28 02:48:45;;;;;;;;;;;16.10;99.90;;;;;;5018589;28;19925;-76
2023/06/28 02:51:14;;;;;;;;;;;16.10;99.90;;;;;;5047941;28;20340;-74
2023/06/28 02:53:40;;;;;;;;;;;16.10;99.90;;;;;;5020738;28;19929;-76
2023/06/28 02:56:15;;;;;;;;;;;16.10;99.90;;;;;;5033197;28;20361;-75
2023/06/28 02:59:00;;;;;;;;;;;16.10;99.90;;;;;;5032160;28;20051;-74
2023/06/28 03:01:26;;;;;;;;;;;16.10;99.90;;;;;;5033953;28;19937;-76
2023/06/28 03:03:52;;;;;;;;;;;16.20;99.90;;;;;;5017967;28;19928;-75
2023/06/28 03:06:35;;;;;;;;;;;16.20;99.90;;;;;;4972684;28;21653;-75
2023/06/28 03:09:01;;;;;;;;;;;16.10;99.90;;;;;;4955603;28;20482;-75
2023/06/28 03:11:26;;;;;;;;;;;16.20;99.90;;;;;;4973460;28;19926;-75
2023/06/28 03:13:52;;;;;;;;;;;16.10;99.90;;;;;;4973195;28;19926;-74
2023/06/28 03:16:21;;;;;;;;;;;16.10;99.90;;;;;;4972814;28;19942;-75
2023/06/28 03:18:51;;;;;;;;;;;16.10;99.90;;;;;;4972398;28;19933;-75
2023/06/28 03:21:17;;;;;;;;;;;16.10;99.90;;;;;;4973463;28;20430;-75
2023/06/28 03:23:43;;;;;;;;;;;16.20;99.90;;;;;;4957124;28;19987;-75
2023/06/28 03:26:09;;;;;;;;;;;16.10;99.90;;;;;;4960573;28;20009;-75
2023/06/28 03:28:41;;;;;;;;;;;16.10;99.90;;;;;;4957537;28;20387;-75
2023/06/28 03:31:08;;;;;;;;;;;16.10;99.90;;;;;;4959369;28;19922;-75
2023/06/28 03:33:36;;;;;;;;;;;16.10;99.90;;;;;;4987883;28;19973;-75
2023/06/28 03:36:03;;;;;;;;;;;16.10;99.90;;;;;;4962363;28;19921;-75
2023/06/28 03:38:39;;;;;;;;;;;16.10;99.90;;;;;;5043082;28;20014;-77
2023/06/28 03:41:06;;;;;;;;;;;16.10;99.90;;;;;;5020057;28;19960;-75
2023/06/28 03:43:35;;;;;;;;;;;16.10;99.90;;;;;;5033500;28;20043;-75
2023/06/28 03:46:02;;;;;;;;;;;16.10;99.90;;;;;;5014335;28;20217;-75
2023/06/28 03:48:27;;;;;;;;;;;16.10;99.90;;;;;;5015865;28;19929;-76
2023/06/28 03:50:53;;;;;;;;;;;16.10;99.90;;;;;;5016516;28;19928;-75
2023/06/28 03:53:19;;;;;;;;;;;16.10;99.90;;;;;;5034081;28;19939;-76
2023/06/28 03:55:45;;;;;;;;;;;16.10;99.90;;;;;;5046775;28;19925;-77
2023/06/28 03:58:22;;;;;;;;;;;16.10;99.90;;;;;;5031612;28;19977;-75
2023/06/28 04:00:52;;;;;;;;;;;16.20;99.90;;;;;;5032849;28;19979;-75
2023/06/28 04:03:21;;;;;;;;;;;16.20;99.90;;;;;;5016478;28;19975;-77
2023/06/28 04:05:48;;;;;;;;;;;16.20;99.90;;;;;;5016114;28;19965;-75
2023/06/28 04:08:26;;;;;;;;;;;16.20;99.90;;;;;;5020668;28;20047;-75
2023/06/28 04:10:53;;;;;;;;;;;16.20;99.90;;;;;;5004380;28;19925;-76
2023/06/28 04:13:26;;;;;;;;;;;16.20;99.90;;;;;;5031242;28;20394;-75
2023/06/28 04:15:58;;;;;;;;;;;16.20;99.90;;;;;;5021522;28;20391;-77
2023/06/28 04:18:30;;;;;;;;;;;16.20;99.90;;;;;;5019870;28;20291;-75
2023/06/28 04:21:03;;;;;;;;;;;16.30;99.90;;;;;;5048094;28;19932;-77
2023/06/28 04:23:41;;;;;;;;;;;16.20;99.90;;;;;;5012465;28;19929;-76
2023/06/28 04:26:30;;;;;;;;;;;16.20;99.90;;;;;;4981135;28;19973;-76
2023/06/28 04:31:47;;;;;;;;;;;16.20;99.90;;;;;;4978807;28;20344;-75
2023/06/28 04:34:20;;;;;;;;;;;16.30;99.90;;;;;;4983333;28;20000;-75
2023/06/28 04:36:49;;;;;;;;;;;16.30;99.90;;;;;;4980550;28;20932;-75
2023/06/28 04:39:23;;;;;;;;;;;16.30;99.90;;;;;;4981866;28;19939;-75
2023/06/28 04:42:03;;;;;;;;;;;16.30;99.90;;;;;;4994419;28;19929;-77
2023/06/28 04:44:47;;;;;;;;;;;16.30;99.90;;;;;;4984943;28;19981;-76
2023/06/28 04:47:15;;;;;;;;;;;16.30;99.90;;;;;;4981934;28;20012;-76
2023/06/28 04:49:48;;;;;;;;;;;16.40;99.90;;;;;;4965778;28;20046;-76
2023/06/28 04:52:14;;;;;;;;;;;16.40;99.90;;;;;;4963252;28;19936;-77
2023/06/28 04:54:54;;;;;;;;;;;16.40;99.90;;;;;;4984325;28;20843;-76
2023/06/28 04:57:32;;;;;;;;;;;16.40;99.90;;;;;;5001630;28;19948;-78
2023/06/28 05:00:10;;;;;;;;;;;16.40;99.90;;;;;;5021829;28;19931;-75
2023/06/28 05:02:44;;;;;;;;;;;16.50;99.90;;;;;;5035040;28;19920;-76
2023/06/28 05:05:13;;;;;;;;;;;15.70;99.90;;;;;;5021939;28;19931;-76
2023/06/28 05:07:43;;;;;;;;;;;16.50;99.90;;;;;;5032411;28;19925;-76
2023/06/28 05:10:09;;;;;;;;;;;16.50;99.90;;;;;;4996338;28;20052;-75
2023/06/28 05:12:56;;;;;;;;;;;16.50;99.90;;;;;;4992399;28;19967;-75
2023/06/28 05:15:32;;;;;;;;;;;16.50;99.90;;;;;;4979694;28;20043;-73
2023/06/28 05:17:58;;;;;;;;;;;16.60;99.90;;;;;;4976622;28;19931;-71
2023/06/28 05:20:37;;;;;;;;;;;16.60;99.90;;;;;;4974497;28;20013;-76
2023/06/28 05:23:29;;;;;;;;;;;16.60;99.90;;;;;;4973466;28;19922;-74
2023/06/28 05:29:19;;;;;;;;;;;16.70;99.90;;;;;;4977613;28;20016;-73
2023/06/28 05:32:22;;;;;;;;;;;16.70;99.90;;;;;;4954270;28;19938;-75
2023/06/28 05:35:13;;;;;;;;;;;16.70;99.90;;;;;;4953515;28;19928;-74
2023/06/28 05:38:06;;;;;;;;;;;16.70;99.90;;;;;;4924459;28;19935;-77
2023/06/28 05:40:42;;;;;;;;;;;16.80;99.90;;;;;;4947803;28;19976;-74
2023/06/28 05:43:45;;;;;;;;;;;16.80;99.90;;;;;;4933307;28;19951;-74
2023/06/28 05:47:20;;;;;;;;;;;16.80;99.90;;;;;;4899325;29;20369;-76
2023/06/28 05:49:57;;;;;;;;;;;15.80;99.90;;;;;;4898623;29;19950;-74
2023/06/28 05:52:52;;;;;;;;;;;16.80;99.90;;;;;;4971152;28;20016;-73
2023/06/28 05:55:40;;;;;;;;;;;16.80;99.90;;;;;;4974641;28;20423;-73
2023/06/28 05:58:26;;;;;;;;;;;16.30;99.90;;;;;;4971309;28;19933;-72
2023/06/28 06:01:03;;;;;;;;;;;16.90;99.90;;;;;;4961286;28;19932;-73
2023/06/28 06:03:30;;;;;;;;;;;16.90;99.90;;;;;;4987147;28;20328;-72
2023/06/28 06:09:35;;;;;;;;;;;16.90;99.90;;;;;;4982907;28;20301;-72
2023/06/28 06:12:38;;;;;;;;;;;16.30;99.90;;;;;;4944810;28;20407;-72
2023/06/28 06:15:20;;;;;;;;;;;16.90;99.90;;;;;;5028359;28;19963;-74
2023/06/28 06:18:02;;;;;;;;;;;16.80;99.90;;;;;;4959458;28;20005;-73
2023/06/28 06:20:37;;;;;;;;;;;16.90;99.90;;;;;;5012177;28;19931;-73
2023/06/28 06:23:21;;;;;;;;;;;16.90;99.90;;;;;;5033580;28;19962;-81
2023/06/28 06:26:25;;;;;;;;;;;17.40;99.90;;;;;;5040422;28;19921;-78
2023/06/28 06:28:51;;;;;;;;;;;17.00;99.90;;;;;;5044096;28;19931;-79
2023/06/28 06:31:16;;;;;;;;;;;17.00;99.90;;;;;;5050043;28;19924;-79
2023/06/28 06:33:42;;;;;;;;;;;17.00;99.90;;;;;;5050061;28;19920;-79
2023/06/28 06:36:16;;;;;;;;;;;17.10;99.90;;;;;;5049580;28;20513;-78
2023/06/28 06:38:41;;;;;;;;;;;17.10;99.90;;;;;;5032452;28;19940;-79
2023/06/28 06:41:15;;;;;;;;;;;17.10;99.90;;;;;;5045192;28;19920;-78
2023/06/28 06:43:50;;;;;;;;;;;17.20;99.90;;;;;;5034778;28;20007;-78
2023/06/28 06:46:18;;;;;;;;;;;17.20;99.90;;;;;;5034123;28;20000;-80
2023/06/28 06:48:44;;;;;;;;;;;17.20;99.90;;;;;;5010126;28;19925;-78
2023/06/28 06:51:10;;;;;;;;;;;17.20;99.90;;;;;;5033837;28;19920;-78
2023/06/28 06:53:36;;;;;;;;;;;17.30;99.90;;;;;;5032819;28;20719;-78
2023/06/28 06:56:02;;;;;;;;;;;17.30;99.90;;;;;;5043105;28;19928;-77
2023/06/28 06:58:28;;;;;;;;;;;17.30;99.90;;;;;;5048601;28;19931;-78
2023/06/28 07:00:54;;;;;;;;;;;17.30;99.90;;;;;;5033217;28;19929;-79
2023/06/28 07:03:19;;;;;;;;;;;17.30;99.90;;;;;;5032562;28;19928;-79
2023/06/28 07:05:53;;;;;;;;;;;17.30;99.90;;;;;;5030843;28;19924;-79
2023/06/28 07:08:24;;;;;;;;;;;17.40;99.90;;;;;;5036749;28;19936;-79
2023/06/28 07:11:16;;;;;;;;;;;17.40;99.90;;;;;;5029605;28;19920;-80
2023/06/28 07:13:42;;;;;;;;;;;17.50;99.90;;;;;;5025668;28;20349;-80
2023/06/28 07:16:07;;;;;;;;;;;17.50;99.90;;;;;;4997854;28;20004;-79
2023/06/28 07:18:33;;;;;;;;;;;17.60;99.90;;;;;;5027973;28;20414;-80
2023/06/28 07:20:59;;;;;;;;;;;17.60;99.90;;;;;;5040010;28;19929;-80
2023/06/28 07:23:24;;;;;;;;;;;17.60;99.90;;;;;;5023771;28;19929;-80
2023/06/28 07:25:51;;;;;;;;;;;17.30;99.90;;;;;;5020802;28;20371;-80
2023/06/28 07:28:36;;;;;;;;;;;17.70;99.90;;;;;;5027344;28;20312;-81
2023/06/28 07:31:08;;;;;;;;;;;17.80;99.90;;;;;;5023305;28;19971;-79
2023/06/28 07:33:34;;;;;;;;;;;17.80;99.90;;;;;;5008102;28;20672;-79
2023/06/28 07:36:00;;;;;;;;;;;17.90;99.90;;;;;;5041219;28;20354;-78
2023/06/28 07:38:25;;;;;;;;;;;17.90;99.90;;;;;;5024720;28;19999;-77
2023/06/28 07:40:53;;;;;;;;;;;17.90;99.90;;;;;;5040366;28;19925;-77
2023/06/28 07:46:45;;;;;;;;;;;18.00;99.90;;;;;;5004736;28;19928;-79
2023/06/28 07:49:30;;;;;;;;;;;17.40;99.90;;;;;;5038417;28;20004;-79
2023/06/28 07:52:33;;;;;;;;;;;17.80;99.90;;;;;;5020396;28;20012;-79
2023/06/28 07:55:02;;;;;;;;;;;18.10;99.90;;;;;;5027067;28;20375;-79
2023/06/28 07:57:28;;;;;;;;;;;18.10;99.90;;;;;;5041753;28;20059;-80
2023/06/28 08:00:10;;;;;;;;;;;18.10;99.90;;;;;;5010986;28;20415;-78
2023/06/28 08:02:36;;;;;;;;;;;18.10;99.90;;;;;;5038133;28;19924;-77
2023/06/28 08:05:01;;;;;;;;;;;18.10;99.90;;;;;;5037912;28;20294;-77
2023/06/28 08:07:46;;;;;;;;;;;18.10;99.90;;;;;;5042588;28;20283;-79
2023/06/28 08:10:12;;;;;;;;;;;18.00;99.90;;;;;;5033439;28;20352;-79
2023/06/28 08:12:38;;;;;;;;;;;18.10;99.90;;;;;;5009130;28;19928;-81
2023/06/28 08:15:04;;;;;;;;;;;18.10;99.90;;;;;;5037733;28;19936;-79
2023/06/28 08:18:09;;;;;;;;;;;18.10;99.90;;;;;;5053040;28;19974;-78
2023/06/28 08:23:54;;;;;;;;;;;18.10;99.90;;;;;;5051976;28;19929;-78
2023/06/28 08:26:58;;;;;;;;;;;18.20;99.90;;;;;;5038298;28;19963;-79
2023/06/28 08:29:25;;;;;;;;;;;18.20;99.90;;;;;;5025746;28;19929;-78
2023/06/28 08:32:10;;;;;;;;;;;18.30;99.90;;;;;;5059057;28;19921;-77
2023/06/28 08:34:56;;;;;;;;;;;18.30;99.90;;;;;;5031092;28;20003;-78
2023/06/28 08:37:56;;;;;;;;;;;18.80;99.90;;;;;;5033452;28;20299;-78
2023/06/28 08:40:27;;;;;;;;;;;18.40;99.90;;;;;;5056145;28;19936;-78
2023/06/28 08:43:21;;;;;;;;;;;18.10;99.90;;;;;;5025759;28;19932;-79
2023/06/28 08:49:30;;;;;;;;;;;18.50;99.90;;;;;;5035227;28;19916;-71
2023/06/28 08:52:00;;;;;;;;;;;18.50;99.90;;;;;;5035875;28;19935;-71
2023/06/28 08:54:28;;;;;;;;;;;18.60;99.90;;;;;;5034602;28;19921;-72
2023/06/28 08:56:57;;;;;;;;;;;18.60;99.90;;;;;;5040538;28;19929;-72
2023/06/28 08:59:23;;;;;;;;;;;18.60;99.90;;;;;;5036202;28;19932;-71
2023/06/28 09:01:59;;;;;;;;;;;18.70;99.90;;;;;;5019169;28;19928;-72
2023/06/28 09:04:29;;;;;;;;;;;18.70;99.90;;;;;;5036925;28;19920;-71
2023/06/28 09:06:56;;;;;;;;;;;18.70;99.90;;;;;;5039803;28;20450;-72
2023/06/28 09:09:23;;;;;;;;;;;18.70;99.90;;;;;;5003205;28;19975;-72
2023/06/28 09:11:49;;;;;;;;;;;18.70;99.90;;;;;;5015737;28;19927;-71
2023/06/28 09:14:26;;;;;;;;;;;18.80;99.90;;;;;;5003402;28;19924;-73
2023/06/28 09:16:57;;;;;;;;;;;18.80;99.90;;;;;;5002476;28;19928;-69
2023/06/28 09:19:23;;;;;;;;;;;18.90;99.90;;;;;;5025618;28;19929;-73
2023/06/28 09:21:50;;;;;;;;;;;18.90;99.90;;;;;;5008417;28;19921;-73
2023/06/28 09:24:27;;;;;;;;;;;19.00;99.90;;;;;;5007181;28;19960;-69
2023/06/28 09:27:00;;;;;;;;;;;19.00;99.90;;;;;;5037835;28;19934;-73
2023/06/28 09:29:33;;;;;;;;;;;19.00;99.90;;;;;;5051182;28;19920;-70
2023/06/28 09:32:00;;;;;;;;;;;19.10;99.90;;;;;;5009768;28;19939;-70
2023/06/28 09:34:37;;;;;;;;;;;19.10;99.90;;;;;;5036300;28;20353;-70
2023/06/28 09:37:03;;;;;;;;;;;19.20;99.90;;;;;;5037355;28;20442;-72
2023/06/28 09:39:37;;;;;;;;;;;19.20;99.90;;;;;;5019936;28;20370;-71
2023/06/28 09:42:03;;;;;;;;;;;19.20;99.90;;;;;;5037681;28;20009;-73
2023/06/28 09:44:37;;;;;;;;;;;19.20;99.90;;;;;;5004155;28;19924;-71
2023/06/28 09:47:17;;;;;;;;;;;19.20;99.90;;;;;;5023167;28;19957;-71
2023/06/28 09:50:02;;;;;;;;;;;19.20;99.90;;;;;;5035668;28;19966;-71
2023/06/28 09:52:34;;;;;;;;;;;19.20;99.90;;;;;;5021535;28;19971;-72
2023/06/28 09:55:02;;;;;;;;;;;19.20;99.90;;;;;;5003921;28;20331;-71
2023/06/28 09:57:40;;;;;;;;;;;19.20;99.90;;;;;;5036175;28;19995;-74
2023/06/28 10:00:17;;;;;;;;;;;19.10;99.90;;;;;;5035803;28;19936;-71
2023/06/28 10:02:54;;;;;;;;;;;19.10;99.90;;;;;;5039276;28;19925;-71
2023/06/28 10:05:21;;;;;;;;;;;19.10;99.90;;;;;;5027423;28;19928;-74
2023/06/28 10:08:11;;;;;;;;;;;19.10;99.90;;;;;;5005945;28;20628;-72
2023/06/28 10:10:44;;;;;;;;;;;19.10;99.90;;;;;;5022256;28;19935;-71
2023/06/28 10:13:11;;;;;;;;;;;19.20;99.90;;;;;;5022122;28;19924;-73
2023/06/28 10:15:53;;;;;;;;;;;19.20;99.90;;;;;;5022031;28;19925;-72
2023/06/28 10:18:21;;;;;;;;;;;19.30;99.90;;;;;;5038653;28;19925;-72
2023/06/28 10:20:48;;;;;;;;;;;19.30;99.90;;;;;;5039196;28;19925;-71
2023/06/28 10:23:17;;;;;;;;;;;19.30;99.90;;;;;;5014884;28;19929;-71
2023/06/28 10:25:50;;;;;;;;;;;19.30;99.90;;;;;;5001736;28;20015;-72
2023/06/28 10:28:22;;;;;;;;;;;19.40;99.90;;;;;;5000337;28;20894;-72
2023/06/28 10:30:49;;;;;;;;;;;19.50;99.90;;;;;;5001000;28;20494;-71
2023/06/28 10:33:18;;;;;;;;;;;18.90;99.90;;;;;;5030865;28;20031;-71
2023/06/28 10:35:44;;;;;;;;;;;19.60;99.90;;;;;;5005559;28;20800;-73
2023/06/28 10:38:10;;;;;;;;;;;19.70;99.90;;;;;;5000510;28;19986;-73
2023/06/28 10:40:48;;;;;;;;;;;19.70;99.90;;;;;;5004732;28;19936;-73
2023/06/28 10:43:22;;;;;;;;;;;19.70;99.90;;;;;;5002937;28;19987;-73
2023/06/28 10:45:47;;;;;;;;;;;19.70;99.90;;;;;;5002567;28;19925;-71
2023/06/28 10:48:28;;;;;;;;;;;19.70;99.90;;;;;;5004057;28;19984;-71
2023/06/28 10:50:57;;;;;;;;;;;19.70;99.90;;;;;;4979923;28;19936;-71
2023/06/28 10:53:26;;;;;;;;;;;19.70;99.90;;;;;;5005980;28;20303;-70
2023/06/28 10:56:04;;;;;;;;;;;19.70;99.90;;;;;;5026850;28;19929;-73
2023/06/28 10:58:37;;;;;;;;;;;19.70;99.90;;;;;;5020529;28;19955;-71
2023/06/28 11:01:08;;;;;;;;;;;19.70;99.90;;;;;;5052234;28;20477;-71
2023/06/28 11:03:40;;;;;;;;;;;19.70;99.90;;;;;;5021634;28;19935;-71
2023/06/28 11:06:13;;;;;;;;;;;19.70;99.90;;;;;;5021847;28;19932;-71
2023/06/28 11:08:39;;;;;;;;;;;19.70;99.90;;;;;;5022194;28;19928;-70
2023/06/28 11:11:07;;;;;;;;;;;19.70;99.90;;;;;;5027770;28;19921;-71
2023/06/28 11:13:50;;;;;;;;;;;19.70;99.90;;;;;;5051935;28;20387;-73
2023/06/28 11:16:21;;;;;;;;;;;19.80;99.90;;;;;;5042773;28;19935;-71
2023/06/28 11:18:48;;;;;;;;;;;19.80;99.90;;;;;;5037754;28;19945;-71
2023/06/28 11:21:33;;;;;;;;;;;19.80;99.90;;;;;;5041261;28;19933;-73
2023/06/28 11:24:08;;;;;;;;;;;19.80;99.90;;;;;;5054511;28;19951;-71
2023/06/28 11:26:41;;;;;;;;;;;19.80;99.90;;;;;;5031302;28;19965;-72
2023/06/28 11:29:22;;;;;;;;;;;19.80;99.90;;;;;;5055750;28;20329;-71
2023/06/28 11:32:01;;;;;;;;;;;19.80;99.90;;;;;;5051347;28;19950;-72
2023/06/28 11:34:36;;;;;;;;;;;19.90;99.90;;;;;;5038871;28;19932;-73
2023/06/28 11:37:03;;;;;;;;;;;19.90;99.90;;;;;;5025979;28;19933;-72
2023/06/28 11:39:37;;;;;;;;;;;20.00;99.90;;;;;;5038677;28;20003;-72
2023/06/28 11:42:13;;;;;;;;;;;20.00;99.90;;;;;;5040612;28;20284;-72
2023/06/28 11:44:46;;;;;;;;;;;20.10;99.90;;;;;;5037258;28;20282;-72
2023/06/28 11:47:13;;;;;;;;;;;19.80;99.90;;;;;;5038504;28;19932;-71
2023/06/28 11:49:43;;;;;;;;;;;20.10;99.90;;;;;;5050247;28;19925;-72
2023/06/28 11:52:20;;;;;;;;;;;20.10;99.90;;;;;;5006710;28;19925;-71
2023/06/28 11:54:46;;;;;;;;;;;20.00;99.90;;;;;;5006114;28;19999;-74
2023/06/28 11:57:23;;;;;;;;;;;20.00;99.90;;;;;;5036432;28;19924;-70
2023/06/28 11:59:55;;;;;;;;;;;20.00;99.90;;;;;;5051154;28;19931;-72
2023/06/28 12:02:28;;;;;;;;;;;20.10;99.90;;;;;;5007344;28;20020;-71
2023/06/28 12:05:06;;;;;;;;;;;20.10;99.90;;;;;;5021362;28;19943;-72
2023/06/28 12:07:57;;;;;;;;;;;20.30;99.90;;;;;;5033412;28;20089;-72
2023/06/28 12:10:39;;;;;;;;;;;20.10;99.90;;;;;;4987253;28;20206;-73
2023/06/28 12:13:05;;;;;;;;;;;20.40;99.90;;;;;;5009772;28;19950;-72
2023/06/28 12:15:31;;;;;;;;;;;20.40;99.90;;;;;;5021023;28;19960;-73
2023/06/28 12:17:57;;;;;;;;;;;22.10;99.90;;;;;;5052982;28;20062;-73
2023/06/28 12:20:23;;;;;;;;;;;20.50;99.90;;;;;;5014263;28;20466;-71
2023/06/28 12:22:49;;;;;;;;;;;20.60;99.90;;;;;;5030236;28;19976;-71
2023/06/28 12:25:24;;;;;;;;;;;20.70;99.90;;;;;;5038738;28;19925;-73
2023/06/28 12:27:59;;;;;;;;;;;20.80;99.90;;;;;;5020329;28;19925;-73
2023/06/28 12:30:26;;;;;;;;;;;20.90;99.90;;;;;;5017890;28;20108;-71
2023/06/28 12:33:04;;;;;;;;;;;20.90;99.90;;;;;;5016153;28;20362;-78
2023/06/28 12:35:33;;;;;;;;;;;21.30;99.90;;;;;;5035956;28;20016;-74
2023/06/28 12:38:01;;;;;;;;;;;21.10;99.90;;;;;;5018822;28;20082;-74
2023/06/28 12:40:32;;;;;;;;;;;21.00;99.90;;;;;;5041161;28;19921;-74
2023/06/28 12:43:07;;;;;;;;;;;21.30;99.90;;;;;;5020076;28;19931;-74
2023/06/28 12:45:50;;;;;;;;;;;21.50;99.90;;;;;;5037712;28;19927;-74
2023/06/28 12:48:22;;;;;;;;;;;21.80;99.90;;;;;;5036409;28;19978;-76
2023/06/28 12:50:49;;;;;;;;;;;21.90;99.90;;;;;;5052238;28;20432;-75
2023/06/28 12:53:15;;;;;;;;;;;22.00;99.90;;;;;;5025480;28;19926;-73
2023/06/28 12:55:40;;;;;;;;;;;22.20;99.90;;;;;;5024701;28;19941;-74
2023/06/28 12:58:07;;;;;;;;;;;22.50;99.90;;;;;;5008822;28;19936;-75
2023/06/28 13:00:33;;;;;;;;;;;22.40;99.90;;;;;;5021242;28;19929;-74
2023/06/28 13:03:05;;;;;;;;;;;22.60;99.90;;;;;;5025655;28;19936;-74
2023/06/28 13:05:31;;;;;;;;;;;24.30;99.90;;;;;;5003581;28;19932;-75
2023/06/28 13:08:00;;;;;;;;;;;22.80;99.90;;;;;;5042167;28;19920;-74
2023/06/28 13:10:25;;;;;;;;;;;23.10;99.90;;;;;;5025105;28;19987;-74
2023/06/28 13:12:51;;;;;;;;;;;23.50;99.90;;;;;;5025607;28;20028;-74
2023/06/28 13:15:22;;;;;;;;;;;24.00;99.90;;;;;;5024629;28;19929;-75
2023/06/28 13:17:48;;;;;;;;;;;24.30;99.90;;;;;;5052482;28;19956;-73
2023/06/28 13:20:15;;;;;;;;;;;24.20;99.90;;;;;;5019689;28;19929;-74
2023/06/28 13:22:41;;;;;;;;;;;23.90;99.90;;;;;;5025293;28;19925;-74
2023/06/28 13:25:07;;;;;;;;;;;24.20;99.90;;;;;;5006046;28;19935;-76
2023/06/28 13:27:32;;;;;;;;;;;24.20;99.90;;;;;;5036379;28;20022;-75
2023/06/28 13:29:59;;;;;;;;;;;24.20;99.90;;;;;;5005279;28;19932;-74
2023/06/28 13:32:25;;;;;;;;;;;24.20;99.90;;;;;;5024076;28;19921;-74
2023/06/28 13:34:51;;;;;;;;;;;24.00;99.90;;;;;;5023678;28;19921;-75
2023/06/28 13:37:16;;;;;;;;;;;23.80;99.90;;;;;;5035173;28;19925;-75
2023/06/28 13:39:42;;;;;;;;;;;23.70;99.90;;;;;;5038066;28;20007;-75
2023/06/28 13:42:07;;;;;;;;;;;23.50;99.90;;;;;;4992409;28;19925;-75
2023/06/28 13:44:33;;;;;;;;;;;23.30;99.90;;;;;;5003373;28;20866;-74
2023/06/28 13:46:59;;;;;;;;;;;23.30;99.90;;;;;;5024206;28;20331;-75
2023/06/28 13:49:24;;;;;;;;;;;23.20;99.90;;;;;;5004354;28;19936;-76
2023/06/28 13:51:50;;;;;;;;;;;23.20;99.90;;;;;;5019488;28;20267;-73
2023/06/28 13:54:15;;;;;;;;;;;23.10;99.90;;;;;;5036757;28;20374;-72
2023/06/28 13:56:47;;;;;;;;;;;23.00;99.90;;;;;;5004738;28;19975;-73
2023/06/28 13:59:12;;;;;;;;;;;23.00;99.90;;;;;;5024733;28;19920;-71
2023/06/28 14:01:38;;;;;;;;;;;22.90;99.90;;;;;;5005541;28;21836;-73
2023/06/28 14:04:03;;;;;;;;;;;23.00;99.90;;;;;;5027441;28;19978;-71
2023/06/28 14:06:29;;;;;;;;;;;23.00;99.90;;;;;;5043461;28;20003;-71
2023/06/28 14:09:01;;;;;;;;;;;23.00;99.90;;;;;;5005984;28;20015;-74
2023/06/28 14:11:26;;;;;;;;;;;23.00;99.90;;;;;;5007708;28;19937;-71
2023/06/28 14:13:52;;;;;;;;;;;23.00;99.90;;;;;;5036720;28;19925;-71
2023/06/28 14:16:23;;;;;;;;;;;22.90;99.90;;;;;;5020474;28;20007;-72
2023/06/28 14:18:49;;;;;;;;;;;22.80;99.90;;;;;;5018456;28;19925;-72
2023/06/28 14:21:15;;;;;;;;;;;22.80;99.90;;;;;;5004120;28;19940;-72
2023/06/28 14:23:40;;;;;;;;;;;22.70;99.90;;;;;;5024452;28;19929;-71
2023/06/28 14:26:06;;;;;;;;;;;22.60;99.90;;;;;;5036202;28;19928;-71
2023/06/28 14:28:32;;;;;;;;;;;22.60;99.90;;;;;;5036389;28;20315;-75
2023/06/28 14:30:58;;;;;;;;;;;22.70;99.90;;;;;;5019412;28;19928;-72
2023/06/28 14:33:25;;;;;;;;;;;22.80;99.90;;;;;;5007021;28;19963;-70
2023/06/28 14:35:54;;;;;;;;;;;22.70;99.90;;;;;;5022822;28;20011;-78
2023/06/28 14:38:46;;;;;;;;;;;22.70;99.90;;;;;;5018456;28;20473;-78
2023/06/28 14:41:36;;;;;;;;;;;22.60;99.90;;;;;;5046874;28;19932;-78
2023/06/28 14:44:03;;;;;;;;;;;22.80;99.90;;;;;;5003311;28;19925;-76
2023/06/28 14:46:28;;;;;;;;;;;22.80;99.90;;;;;;5024096;28;21488;-77
2023/06/28 14:49:05;;;;;;;;;;;22.70;99.90;;;;;;5028454;28;19924;-77
2023/06/28 14:51:31;;;;;;;;;;;22.70;99.90;;;;;;5022085;28;20038;-74
2023/06/28 14:54:01;;;;;;;;;;;22.70;99.90;;;;;;5026571;28;19947;-70
2023/06/28 14:56:29;;;;;;;;;;;22.70;99.90;;;;;;5038910;28;19936;-71
2023/06/28 14:58:56;;;;;;;;;;;22.70;99.90;;;;;;5045534;28;19924;-71
2023/06/28 15:01:35;;;;;;;;;;;22.70;99.90;;;;;;5031302;28;19931;-71
2023/06/28 15:04:06;;;;;;;;;;;22.80;99.90;;;;;;5022817;28;20300;-71